sensor_id;sensor_type;location;lat;lon;timestamp;pressure;altitude;pressure_sealevel;temperature;humidity
67740;BME280;54536;50.090;14.420;2023-03-04T00:02:05;99856.75;;;3.81;56.28
67740;BME280;54536;50.090;14.420;2023-03-04T00:04:30;99857.84;;;3.77;56.78
67740;BME280;54536;50.090;14.420;2023-03-04T00:06:57;99856.75;;;3.81;56.80
67740;BME280;54536;50.090;14.420;2023-03-04T00:09:23;99852.03;;;3.72;56.74
67740;BME280;54536;50.090;14.420;2023-03-04T00:11:49;99851.03;;;3.74;56.88
67740;BME280;54536;50.090;14.420;2023-03-04T00:14:15;99843.59;;;3.84;56.73
67740;BME280;54536;50.090;14.420;2023-03-04T00:16:42;99847.28;;;3.80;56.51
67740;BME280;54536;50.090;14.420;2023-03-04T00:19:09;99850.44;;;3.85;56.48
67740;BME280;54536;50.090;14.420;2023-03-04T00:21:35;99845.69;;;3.78;56.83
67740;BME280;54536;50.090;14.420;2023-03-04T00:24:01;99846.44;;;3.95;56.63
67740;BME280;54536;50.090;14.420;2023-03-04T00:26:28;99845.41;;;3.66;56.72
67740;BME280;54536;50.090;14.420;2023-03-04T00:28:54;99844.00;;;3.77;57.03
67740;BME280;54536;50.090;14.420;2023-03-04T00:31:20;99847.19;;;3.82;56.60
67740;BME280;54536;50.090;14.420;2023-03-04T00:33:46;99846.34;;;3.81;56.26
67740;BME280;54536;50.090;14.420;2023-03-04T00:36:12;99840.31;;;3.81;57.45
67740;BME280;54536;50.090;14.420;2023-03-04T00:38:45;99842.16;;;3.94;56.79
67740;BME280;54536;50.090;14.420;2023-03-04T00:41:17;99839.00;;;3.89;56.64
67740;BME280;54536;50.090;14.420;2023-03-04T00:43:49;99840.56;;;3.76;57.34
67740;BME280;54536;50.090;14.420;2023-03-04T00:46:17;99848.53;;;3.73;56.73
67740;BME280;54536;50.090;14.420;2023-03-04T00:48:43;99844.16;;;3.73;57.05
67740;BME280;54536;50.090;14.420;2023-03-04T00:51:10;99843.34;;;3.73;57.11
67740;BME280;54536;50.090;14.420;2023-03-04T00:53:36;99837.97;;;3.76;56.76
67740;BME280;54536;50.090;14.420;2023-03-04T00:56:02;99843.69;;;3.83;56.90
67740;BME280;54536;50.090;14.420;2023-03-04T00:58:29;99834.75;;;3.71;57.64
67740;BME280;54536;50.090;14.420;2023-03-04T01:00:55;99833.09;;;3.86;56.74
67740;BME280;54536;50.090;14.420;2023-03-04T01:03:21;99831.69;;;3.96;56.74
67740;BME280;54536;50.090;14.420;2023-03-04T01:05:48;99823.94;;;3.94;56.83
67740;BME280;54536;50.090;14.420;2023-03-04T01:08:14;99822.34;;;3.92;56.96
67740;BME280;54536;50.090;14.420;2023-03-04T01:10:41;99815.41;;;3.77;56.96
67740;BME280;54536;50.090;14.420;2023-03-04T01:13:08;99812.28;;;3.86;56.94
67740;BME280;54536;50.090;14.420;2023-03-04T01:15:35;99814.31;;;3.81;57.17
67740;BME280;54536;50.090;14.420;2023-03-04T01:18:02;99807.50;;;3.78;57.29
67740;BME280;54536;50.090;14.420;2023-03-04T01:20:28;99805.72;;;3.79;57.01
67740;BME280;54536;50.090;14.420;2023-03-04T01:22:55;99799.19;;;3.71;57.30
67740;BME280;54536;50.090;14.420;2023-03-04T01:25:21;99798.41;;;3.69;57.29
67740;BME280;54536;50.090;14.420;2023-03-04T01:27:47;99796.59;;;3.71;56.71
67740;BME280;54536;50.090;14.420;2023-03-04T01:30:13;99800.16;;;3.53;57.04
67740;BME280;54536;50.090;14.420;2023-03-04T01:32:39;99792.38;;;3.69;56.77
67740;BME280;54536;50.090;14.420;2023-03-04T01:35:06;99790.28;;;3.75;56.67
67740;BME280;54536;50.090;14.420;2023-03-04T01:37:41;99782.56;;;3.58;56.45
67740;BME280;54536;50.090;14.420;2023-03-04T01:40:14;99784.41;;;3.72;56.53
67740;BME280;54536;50.090;14.420;2023-03-04T01:42:40;99787.25;;;3.51;56.69
67740;BME280;54536;50.090;14.420;2023-03-04T01:45:13;99783.19;;;3.30;57.28
67740;BME280;54536;50.090;14.420;2023-03-04T01:47:48;99775.75;;;3.40;57.05
67740;BME280;54536;50.090;14.420;2023-03-04T01:50:29;99767.16;;;3.22;57.45
67740;BME280;54536;50.090;14.420;2023-03-04T01:52:56;99765.97;;;3.12;57.45
67740;BME280;54536;50.090;14.420;2023-03-04T01:55:23;99760.47;;;3.18;57.96
67740;BME280;54536;50.090;14.420;2023-03-04T01:57:51;99758.81;;;3.48;57.11
67740;BME280;54536;50.090;14.420;2023-03-04T02:00:29;99753.06;;;3.43;57.05
67740;BME280;54536;50.090;14.420;2023-03-04T02:03:05;99751.97;;;3.47;56.98
67740;BME280;54536;50.090;14.420;2023-03-04T02:05:36;99750.69;;;3.55;56.57
67740;BME280;54536;50.090;14.420;2023-03-04T02:08:04;99751.19;;;3.61;56.42
67740;BME280;54536;50.090;14.420;2023-03-04T02:10:31;99745.41;;;3.56;56.36
67740;BME280;54536;50.090;14.420;2023-03-04T02:12:59;99742.25;;;3.67;57.24
67740;BME280;54536;50.090;14.420;2023-03-04T02:15:27;99734.91;;;3.42;56.85
67740;BME280;54536;50.090;14.420;2023-03-04T02:17:54;99735.69;;;3.60;56.84
67740;BME280;54536;50.090;14.420;2023-03-04T02:21:16;99738.03;;;3.48;56.96
67740;BME280;54536;50.090;14.420;2023-03-04T02:23:49;99722.78;;;3.58;56.69
67740;BME280;54536;50.090;14.420;2023-03-04T02:26:26;99724.00;;;3.35;56.85
67740;BME280;54536;50.090;14.420;2023-03-04T02:29:00;99731.97;;;3.32;56.87
67740;BME280;54536;50.090;14.420;2023-03-04T02:31:45;99725.53;;;3.39;57.52
67740;BME280;54536;50.090;14.420;2023-03-04T02:34:16;99720.41;;;3.38;57.37
67740;BME280;54536;50.090;14.420;2023-03-04T02:36:45;99717.00;;;3.37;57.36
67740;BME280;54536;50.090;14.420;2023-03-04T02:39:33;99716.63;;;3.27;57.40
67740;BME280;54536;50.090;14.420;2023-03-04T02:42:02;99716.06;;;3.38;57.12
67740;BME280;54536;50.090;14.420;2023-03-04T02:44:31;99712.53;;;3.39;57.37
67740;BME280;54536;50.090;14.420;2023-03-04T02:47:00;99708.84;;;3.27;57.04
67740;BME280;54536;50.090;14.420;2023-03-04T02:49:30;99706.66;;;3.36;57.16
67740;BME280;54536;50.090;14.420;2023-03-04T02:52:18;99709.06;;;3.23;57.34
67740;BME280;54536;50.090;14.420;2023-03-04T02:54:44;99707.31;;;3.23;57.34
67740;BME280;54536;50.090;14.420;2023-03-04T02:57:17;99704.97;;;3.19;57.30
67740;BME280;54536;50.090;14.420;2023-03-04T02:59:51;99700.13;;;3.28;56.45
67740;BME280;54536;50.090;14.420;2023-03-04T03:02:18;99706.47;;;3.23;57.27
67740;BME280;54536;50.090;14.420;2023-03-04T03:04:44;99704.22;;;3.33;56.49
67740;BME280;54536;50.090;14.420;2023-03-04T03:07:11;99698.00;;;3.19;56.21
67740;BME280;54536;50.090;14.420;2023-03-04T03:09:43;99702.41;;;2.86;57.05
67740;BME280;54536;50.090;14.420;2023-03-04T03:12:17;99700.59;;;2.70;57.73
67740;BME280;54536;50.090;14.420;2023-03-04T03:14:43;99703.69;;;2.77;57.62
67740;BME280;54536;50.090;14.420;2023-03-04T03:17:09;99702.91;;;2.59;57.93
67740;BME280;54536;50.090;14.420;2023-03-04T03:19:36;99699.47;;;2.58;58.13
67740;BME280;54536;50.090;14.420;2023-03-04T03:22:03;99699.94;;;2.83;57.82
67740;BME280;54536;50.090;14.420;2023-03-04T03:24:30;99703.13;;;2.88;57.53
67740;BME280;54536;50.090;14.420;2023-03-04T03:26:57;99706.50;;;2.90;57.60
67740;BME280;54536;50.090;14.420;2023-03-04T03:29:29;99701.75;;;2.98;57.13
67740;BME280;54536;50.090;14.420;2023-03-04T03:31:56;99700.53;;;2.72;58.01
67740;BME280;54536;50.090;14.420;2023-03-04T03:34:21;99702.50;;;2.67;58.06
67740;BME280;54536;50.090;14.420;2023-03-04T03:36:48;99693.47;;;2.91;57.42
67740;BME280;54536;50.090;14.420;2023-03-04T03:39:14;99696.22;;;3.04;57.13
67740;BME280;54536;50.090;14.420;2023-03-04T03:41:40;99681.72;;;3.00;56.99
67740;BME280;54536;50.090;14.420;2023-03-04T03:44:07;99684.44;;;2.81;57.58
67740;BME280;54536;50.090;14.420;2023-03-04T03:46:33;99681.88;;;2.97;56.80
67740;BME280;54536;50.090;14.420;2023-03-04T03:49:00;99679.59;;;2.91;56.74
67740;BME280;54536;50.090;14.420;2023-03-04T03:51:28;99682.50;;;3.02;56.41
67740;BME280;54536;50.090;14.420;2023-03-04T03:53:54;99678.56;;;3.11;56.68
67740;BME280;54536;50.090;14.420;2023-03-04T03:56:21;99681.25;;;2.76;56.66
67740;BME280;54536;50.090;14.420;2023-03-04T03:58:47;99680.59;;;2.55;57.79
67740;BME280;54536;50.090;14.420;2023-03-04T04:01:14;99686.88;;;2.84;56.96
67740;BME280;54536;50.090;14.420;2023-03-04T04:03:40;99682.78;;;2.80;56.85
67740;BME280;54536;50.090;14.420;2023-03-04T04:06:08;99681.31;;;2.74;56.70
67740;BME280;54536;50.090;14.420;2023-03-04T04:08:35;99683.09;;;2.74;57.06
67740;BME280;54536;50.090;14.420;2023-03-04T04:11:01;99686.50;;;2.58;57.69
67740;BME280;54536;50.090;14.420;2023-03-04T04:13:27;99695.13;;;2.59;57.47
67740;BME280;54536;50.090;14.420;2023-03-04T04:15:54;99691.69;;;2.58;58.01
67740;BME280;54536;50.090;14.420;2023-03-04T04:18:19;99686.16;;;2.65;58.20
67740;BME280;54536;50.090;14.420;2023-03-04T04:20:46;99688.56;;;2.52;57.85
67740;BME280;54536;50.090;14.420;2023-03-04T04:23:12;99685.63;;;2.75;57.62
67740;BME280;54536;50.090;14.420;2023-03-04T04:25:39;99692.88;;;2.69;57.19
67740;BME280;54536;50.090;14.420;2023-03-04T04:28:05;99693.50;;;2.56;57.64
67740;BME280;54536;50.090;14.420;2023-03-04T04:30:31;99692.53;;;2.59;57.81
67740;BME280;54536;50.090;14.420;2023-03-04T04:33:03;99690.81;;;2.58;58.00
67740;BME280;54536;50.090;14.420;2023-03-04T04:35:40;99693.50;;;2.56;58.02
67740;BME280;54536;50.090;14.420;2023-03-04T04:38:08;99692.88;;;2.51;57.94
67740;BME280;54536;50.090;14.420;2023-03-04T04:40:35;99689.84;;;2.61;57.55
67740;BME280;54536;50.090;14.420;2023-03-04T04:43:02;99682.97;;;2.60;56.58
67740;BME280;54536;50.090;14.420;2023-03-04T04:45:29;99691.22;;;2.50;56.66
67740;BME280;54536;50.090;14.420;2023-03-04T04:48:01;99678.88;;;2.55;55.83
67740;BME280;54536;50.090;14.420;2023-03-04T04:50:27;99676.47;;;2.51;55.67
67740;BME280;54536;50.090;14.420;2023-03-04T04:53:01;99677.66;;;2.45;56.16
67740;BME280;54536;50.090;14.420;2023-03-04T04:55:27;99673.16;;;2.49;55.77
67740;BME280;54536;50.090;14.420;2023-03-04T04:57:59;99670.75;;;2.44;56.17
67740;BME280;54536;50.090;14.420;2023-03-04T05:00:41;99673.47;;;2.43;56.04
67740;BME280;54536;50.090;14.420;2023-03-04T05:03:08;99674.28;;;2.43;55.78
67740;BME280;54536;50.090;14.420;2023-03-04T05:05:34;99677.97;;;2.39;56.71
67740;BME280;54536;50.090;14.420;2023-03-04T05:08:00;99671.53;;;2.46;56.61
67740;BME280;54536;50.090;14.420;2023-03-04T05:10:27;99670.56;;;2.49;56.59
67740;BME280;54536;50.090;14.420;2023-03-04T05:12:53;99677.00;;;2.57;56.61
67740;BME280;54536;50.090;14.420;2023-03-04T05:15:20;99676.72;;;2.46;56.44
67740;BME280;54536;50.090;14.420;2023-03-04T05:17:46;99681.91;;;2.46;56.55
67740;BME280;54536;50.090;14.420;2023-03-04T05:20:13;99686.50;;;2.41;56.48
67740;BME280;54536;50.090;14.420;2023-03-04T05:22:45;99691.34;;;2.65;56.28
67740;BME280;54536;50.090;14.420;2023-03-04T05:25:12;99694.81;;;2.65;56.06
67740;BME280;54536;50.090;14.420;2023-03-04T05:27:39;99696.22;;;2.71;56.21
67740;BME280;54536;50.090;14.420;2023-03-04T05:30:11;99698.69;;;2.56;56.61
67740;BME280;54536;50.090;14.420;2023-03-04T05:32:39;99700.81;;;2.48;56.77
67740;BME280;54536;50.090;14.420;2023-03-04T05:35:07;99696.41;;;2.50;56.54
67740;BME280;54536;50.090;14.420;2023-03-04T05:37:33;99691.84;;;2.38;57.07
67740;BME280;54536;50.090;14.420;2023-03-04T05:40:00;99691.47;;;2.46;57.61
67740;BME280;54536;50.090;14.420;2023-03-04T05:42:26;99695.59;;;2.32;57.25
67740;BME280;54536;50.090;14.420;2023-03-04T05:44:53;99700.91;;;2.47;57.79
67740;BME280;54536;50.090;14.420;2023-03-04T05:47:19;99696.97;;;2.40;58.05
67740;BME280;54536;50.090;14.420;2023-03-04T05:49:46;99693.41;;;2.58;57.33
67740;BME280;54536;50.090;14.420;2023-03-04T05:52:12;99704.50;;;2.44;57.26
67740;BME280;54536;50.090;14.420;2023-03-04T05:54:39;99703.97;;;2.38;57.61
67740;BME280;54536;50.090;14.420;2023-03-04T05:57:17;99703.53;;;2.29;57.93
67740;BME280;54536;50.090;14.420;2023-03-04T05:59:47;99705.72;;;2.37;58.42
67740;BME280;54536;50.090;14.420;2023-03-04T06:02:13;99710.84;;;2.56;57.44
67740;BME280;54536;50.090;14.420;2023-03-04T06:04:40;99709.22;;;2.71;57.61
67740;BME280;54536;50.090;14.420;2023-03-04T06:07:06;99709.41;;;2.84;56.57
67740;BME280;54536;50.090;14.420;2023-03-04T06:09:33;99709.41;;;2.84;56.42
67740;BME280;54536;50.090;14.420;2023-03-04T06:11:59;99714.38;;;2.88;56.02
67740;BME280;54536;50.090;14.420;2023-03-04T06:14:26;99722.25;;;2.87;56.25
67740;BME280;54536;50.090;14.420;2023-03-04T06:16:58;99716.38;;;2.83;56.42
67740;BME280;54536;50.090;14.420;2023-03-04T06:19:25;99720.13;;;2.77;56.31
67740;BME280;54536;50.090;14.420;2023-03-04T06:21:53;99729.09;;;2.88;55.98
67740;BME280;54536;50.090;14.420;2023-03-04T06:24:20;99727.69;;;2.82;55.92
67740;BME280;54536;50.090;14.420;2023-03-04T06:26:47;99726.00;;;2.81;56.09
67740;BME280;54536;50.090;14.420;2023-03-04T06:29:13;99732.34;;;2.75;55.98
67740;BME280;54536;50.090;14.420;2023-03-04T06:31:40;99723.16;;;2.86;56.51
67740;BME280;54536;50.090;14.420;2023-03-04T06:34:07;99729.59;;;2.78;56.35
67740;BME280;54536;50.090;14.420;2023-03-04T06:36:35;99730.91;;;2.70;56.29
67740;BME280;54536;50.090;14.420;2023-03-04T06:39:03;99735.09;;;2.72;56.38
67740;BME280;54536;50.090;14.420;2023-03-04T06:41:30;99725.34;;;2.93;55.90
67740;BME280;54536;50.090;14.420;2023-03-04T06:43:57;99739.44;;;2.89;55.59
67740;BME280;54536;50.090;14.420;2023-03-04T06:46:24;99736.69;;;2.92;55.42
67740;BME280;54536;50.090;14.420;2023-03-04T06:48:50;99731.53;;;3.08;55.72
67740;BME280;54536;50.090;14.420;2023-03-04T06:51:17;99735.94;;;3.06;55.21
67740;BME280;54536;50.090;14.420;2023-03-04T06:53:44;99740.56;;;3.17;55.39
67740;BME280;54536;50.090;14.420;2023-03-04T06:56:12;99741.38;;;3.35;55.30
67740;BME280;54536;50.090;14.420;2023-03-04T06:58:42;99743.03;;;3.36;54.52
67740;BME280;54536;50.090;14.420;2023-03-04T07:01:23;99735.50;;;3.31;54.59
67740;BME280;54536;50.090;14.420;2023-03-04T07:03:52;99736.59;;;3.27;55.30
67740;BME280;54536;50.090;14.420;2023-03-04T07:06:22;99739.50;;;3.21;55.16
67740;BME280;54536;50.090;14.420;2023-03-04T07:08:49;99733.16;;;3.42;54.40
67740;BME280;54536;50.090;14.420;2023-03-04T07:11:19;99738.34;;;3.26;54.62
67740;BME280;54536;50.090;14.420;2023-03-04T07:13:48;99733.91;;;3.28;54.56
67740;BME280;54536;50.090;14.420;2023-03-04T07:16:17;99737.84;;;3.36;54.73
67740;BME280;54536;50.090;14.420;2023-03-04T07:18:45;99737.84;;;3.36;54.54
67740;BME280;54536;50.090;14.420;2023-03-04T07:21:13;99743.25;;;3.64;54.36
67740;BME280;54536;50.090;14.420;2023-03-04T07:23:40;99745.75;;;3.66;53.99
67740;BME280;54536;50.090;14.420;2023-03-04T07:26:07;99734.09;;;3.57;54.22
67740;BME280;54536;50.090;14.420;2023-03-04T07:28:35;99733.41;;;3.85;54.44
67740;BME280;54536;50.090;14.420;2023-03-04T07:31:27;99739.69;;;3.97;53.55
67740;BME280;54536;50.090;14.420;2023-03-04T07:33:57;99733.31;;;4.03;53.79
67740;BME280;54536;50.090;14.420;2023-03-04T07:36:26;99730.06;;;3.99;53.93
67740;BME280;54536;50.090;14.420;2023-03-04T07:38:54;99729.50;;;4.08;53.28
67740;BME280;54536;50.090;14.420;2023-03-04T07:41:22;99728.84;;;4.05;53.31
67740;BME280;54536;50.090;14.420;2023-03-04T07:43:49;99732.03;;;4.10;53.76
67740;BME280;54536;50.090;14.420;2023-03-04T07:46:18;99735.13;;;4.16;53.34
67740;BME280;54536;50.090;14.420;2023-03-04T07:48:45;99725.53;;;3.87;54.06
67740;BME280;54536;50.090;14.420;2023-03-04T07:51:15;99724.41;;;4.07;53.93
67740;BME280;54536;50.090;14.420;2023-03-04T07:53:45;99727.13;;;4.35;53.54
67740;BME280;54536;50.090;14.420;2023-03-04T07:56:15;99733.41;;;4.31;53.10
67740;BME280;54536;50.090;14.420;2023-03-04T07:58:42;99733.25;;;4.18;53.56
67740;BME280;54536;50.090;14.420;2023-03-04T08:01:11;99733.09;;;4.21;53.84
67740;BME280;54536;50.090;14.420;2023-03-04T08:03:43;99727.47;;;4.29;53.31
67740;BME280;54536;50.090;14.420;2023-03-04T08:06:12;99735.41;;;4.42;53.21
67740;BME280;54536;50.090;14.420;2023-03-04T08:08:41;99724.25;;;4.54;52.90
67740;BME280;54536;50.090;14.420;2023-03-04T08:11:19;99728.69;;;4.68;52.69
67740;BME280;54536;50.090;14.420;2023-03-04T08:13:47;99734.06;;;4.65;52.30
67740;BME280;54536;50.090;14.420;2023-03-04T08:16:15;99732.28;;;4.65;52.02
67740;BME280;54536;50.090;14.420;2023-03-04T08:18:47;99727.25;;;4.62;52.03
67740;BME280;54536;50.090;14.420;2023-03-04T08:21:16;99720.75;;;4.69;51.80
67740;BME280;54536;50.090;14.420;2023-03-04T08:23:45;99726.91;;;4.83;51.53
67740;BME280;54536;50.090;14.420;2023-03-04T08:26:17;99723.84;;;4.76;51.66
67740;BME280;54536;50.090;14.420;2023-03-04T08:28:43;99732.13;;;4.68;51.83
67740;BME280;54536;50.090;14.420;2023-03-04T08:31:13;99731.94;;;4.86;51.31
67740;BME280;54536;50.090;14.420;2023-03-04T08:33:40;99730.28;;;4.99;51.09
67740;BME280;54536;50.090;14.420;2023-03-04T08:36:08;99728.69;;;4.97;51.08
67740;BME280;54536;50.090;14.420;2023-03-04T08:38:34;99720.41;;;5.04;50.93
67740;BME280;54536;50.090;14.420;2023-03-04T08:41:01;99730.09;;;5.02;51.04
67740;BME280;54536;50.090;14.420;2023-03-04T08:43:29;99729.16;;;5.03;51.11
67740;BME280;54536;50.090;14.420;2023-03-04T08:45:56;99716.31;;;5.14;51.01
67740;BME280;54536;50.090;14.420;2023-03-04T08:48:22;99717.13;;;5.29;50.88
67740;BME280;54536;50.090;14.420;2023-03-04T08:50:49;99716.03;;;5.33;50.85
67740;BME280;54536;50.090;14.420;2023-03-04T08:53:17;99713.97;;;5.24;51.12
67740;BME280;54536;50.090;14.420;2023-03-04T08:55:44;99713.22;;;5.36;50.82
67740;BME280;54536;50.090;14.420;2023-03-04T08:58:11;99724.00;;;5.45;50.40
67740;BME280;54536;50.090;14.420;2023-03-04T09:00:40;99715.38;;;5.30;50.70
67740;BME280;54536;50.090;14.420;2023-03-04T09:03:11;99715.16;;;5.47;50.20
67740;BME280;54536;50.090;14.420;2023-03-04T09:05:37;99721.50;;;5.43;50.84
67740;BME280;54536;50.090;14.420;2023-03-04T09:08:04;99717.00;;;5.45;50.36
67740;BME280;54536;50.090;14.420;2023-03-04T09:10:30;99720.47;;;5.46;50.47
67740;BME280;54536;50.090;14.420;2023-03-04T09:12:57;99720.38;;;5.47;50.54
67740;BME280;54536;50.090;14.420;2023-03-04T09:15:24;99716.19;;;5.45;50.61
67740;BME280;54536;50.090;14.420;2023-03-04T09:17:50;99714.47;;;5.58;49.84
67740;BME280;54536;50.090;14.420;2023-03-04T09:20:16;99719.50;;;5.61;49.87
67740;BME280;54536;50.090;14.420;2023-03-04T09:22:42;99706.63;;;5.72;49.52
67740;BME280;54536;50.090;14.420;2023-03-04T09:25:13;99710.47;;;5.67;49.53
67740;BME280;54536;50.090;14.420;2023-03-04T09:27:42;99718.28;;;5.67;49.27
67740;BME280;54536;50.090;14.420;2023-03-04T09:30:09;99705.38;;;5.78;49.55
67740;BME280;54536;50.090;14.420;2023-03-04T09:32:36;99699.09;;;5.68;49.53
67740;BME280;54536;50.090;14.420;2023-03-04T09:35:03;99710.34;;;5.68;49.07
67740;BME280;54536;50.090;14.420;2023-03-04T09:37:29;99717.00;;;5.59;49.97
67740;BME280;54536;50.090;14.420;2023-03-04T09:39:55;99711.94;;;5.71;49.20
67740;BME280;54536;50.090;14.420;2023-03-04T09:42:32;99709.78;;;5.77;49.32
67740;BME280;54536;50.090;14.420;2023-03-04T09:44:59;99703.34;;;5.83;48.90
67740;BME280;54536;50.090;14.420;2023-03-04T09:47:28;99702.13;;;5.89;49.01
67740;BME280;54536;50.090;14.420;2023-03-04T09:50:00;99703.72;;;5.77;49.44
67740;BME280;54536;50.090;14.420;2023-03-04T09:57:49;99693.53;;;5.45;49.41
67740;BME280;54536;50.090;14.420;2023-03-04T10:00:41;99684.91;;;5.72;49.38
67740;BME280;54536;50.090;14.420;2023-03-04T10:05:50;99686.84;;;5.82;48.62
67740;BME280;54536;50.090;14.420;2023-03-04T10:08:23;99681.13;;;5.90;48.39
67740;BME280;54536;50.090;14.420;2023-03-04T10:10:53;99675.41;;;5.98;48.24
67740;BME280;54536;50.090;14.420;2023-03-04T10:13:32;99686.19;;;5.93;48.51
67740;BME280;54536;50.090;14.420;2023-03-04T10:16:05;99682.41;;;5.97;48.94
67740;BME280;54536;50.090;14.420;2023-03-04T10:18:41;99658.47;;;5.91;48.76
67740;BME280;54536;50.090;14.420;2023-03-04T10:21:45;99665.94;;;5.97;48.67
67740;BME280;54536;50.090;14.420;2023-03-04T10:24:16;99666.72;;;6.12;49.05
67740;BME280;54536;50.090;14.420;2023-03-04T10:26:51;99662.53;;;6.09;49.03
67740;BME280;54536;50.090;14.420;2023-03-04T10:29:22;99661.47;;;5.99;48.91
67740;BME280;54536;50.090;14.420;2023-03-04T10:31:50;99668.56;;;6.09;48.93
67740;BME280;54536;50.090;14.420;2023-03-04T10:34:17;99660.34;;;6.16;48.82
67740;BME280;54536;50.090;14.420;2023-03-04T10:39:33;99656.91;;;6.41;48.44
67740;BME280;54536;50.090;14.420;2023-03-04T10:42:27;99650.84;;;6.40;48.20
67740;BME280;54536;50.090;14.420;2023-03-04T10:44:57;99651.69;;;6.41;48.41
67740;BME280;54536;50.090;14.420;2023-03-04T10:47:29;99648.22;;;6.27;48.34
67740;BME280;54536;50.090;14.420;2023-03-04T10:49:58;99639.50;;;6.54;47.97
67740;BME280;54536;50.090;14.420;2023-03-04T10:52:39;99650.25;;;6.62;48.17
67740;BME280;54536;50.090;14.420;2023-03-04T10:55:19;99643.13;;;6.51;48.35
67740;BME280;54536;50.090;14.420;2023-03-04T10:57:50;99635.72;;;6.58;48.29
67740;BME280;54536;50.090;14.420;2023-03-04T11:00:28;99632.38;;;6.56;48.53
67740;BME280;54536;50.090;14.420;2023-03-04T11:06:20;99618.13;;;6.73;47.75
67740;BME280;54536;50.090;14.420;2023-03-04T11:08:57;99611.38;;;6.70;47.89
67740;BME280;54536;50.090;14.420;2023-03-04T11:11:37;99605.06;;;6.86;48.00
67740;BME280;54536;50.090;14.420;2023-03-04T11:16:53;99607.66;;;6.98;47.54
67740;BME280;54536;50.090;14.420;2023-03-04T11:19:36;99607.41;;;7.14;47.58
67740;BME280;54536;50.090;14.420;2023-03-04T11:22:05;99602.16;;;7.14;46.78
67740;BME280;54536;50.090;14.420;2023-03-04T11:24:33;99602.53;;;7.34;47.05
67740;BME280;54536;50.090;14.420;2023-03-04T11:27:14;99600.88;;;7.33;46.98
67740;BME280;54536;50.090;14.420;2023-03-04T11:29:57;99593.75;;;7.22;47.01
67740;BME280;54536;50.090;14.420;2023-03-04T11:32:36;99598.50;;;7.41;46.84
67740;BME280;54536;50.090;14.420;2023-03-04T11:35:21;99603.88;;;7.39;46.02
67740;BME280;54536;50.090;14.420;2023-03-04T11:38:14;99592.09;;;7.45;46.37
67740;BME280;54536;50.090;14.420;2023-03-04T11:40:46;99597.41;;;7.56;46.19
67740;BME280;54536;50.090;14.420;2023-03-04T11:46:01;99594.34;;;7.62;46.48
67740;BME280;54536;50.090;14.420;2023-03-04T11:48:44;99580.88;;;7.56;45.85
67740;BME280;54536;50.090;14.420;2023-03-04T11:51:41;99577.56;;;7.65;45.58
67740;BME280;54536;50.090;14.420;2023-03-04T11:57:07;99570.75;;;7.86;45.03
67740;BME280;54536;50.090;14.420;2023-03-04T12:02:21;99562.97;;;7.73;45.32
67740;BME280;54536;50.090;14.420;2023-03-04T12:05:15;99555.13;;;7.73;45.28
67740;BME280;54536;50.090;14.420;2023-03-04T12:07:56;99557.50;;;7.77;45.33
67740;BME280;54536;50.090;14.420;2023-03-04T12:16:28;99541.44;;;7.70;45.64
67740;BME280;54536;50.090;14.420;2023-03-04T12:19:26;99546.44;;;7.84;45.03
67740;BME280;54536;50.090;14.420;2023-03-04T12:25:12;99536.47;;;7.89;45.40
67740;BME280;54536;50.090;14.420;2023-03-04T12:30:33;99531.25;;;7.89;45.41
67740;BME280;54536;50.090;14.420;2023-03-04T12:41:33;99525.09;;;8.02;45.86
67740;BME280;54536;50.090;14.420;2023-03-04T12:52:43;99520.81;;;8.12;46.37
67740;BME280;54536;50.090;14.420;2023-03-04T12:55:20;99521.91;;;8.32;47.46
67740;BME280;54536;50.090;14.420;2023-03-04T12:57:50;99520.56;;;8.26;45.82
67740;BME280;54536;50.090;14.420;2023-03-04T13:00:44;99517.47;;;8.32;46.92
67740;BME280;54536;50.090;14.420;2023-03-04T13:06:47;99520.34;;;8.29;45.61
67740;BME280;54536;50.090;14.420;2023-03-04T13:09:28;99525.25;;;8.45;45.40
67740;BME280;54536;50.090;14.420;2023-03-04T13:12:22;99519.03;;;8.24;45.32
67740;BME280;54536;50.090;14.420;2023-03-04T13:17:52;99517.47;;;8.32;46.08
67740;BME280;54536;50.090;14.420;2023-03-04T13:20:40;99524.50;;;8.32;45.29
67740;BME280;54536;50.090;14.420;2023-03-04T13:28:35;99505.03;;;8.47;45.50
67740;BME280;54536;50.090;14.420;2023-03-04T13:31:19;99512.63;;;8.39;45.33
67740;BME280;54536;50.090;14.420;2023-03-04T13:33:52;99512.72;;;8.37;45.40
67740;BME280;54536;50.090;14.420;2023-03-04T13:36:33;99514.50;;;8.37;45.73
67740;BME280;54536;50.090;14.420;2023-03-04T13:41:53;99501.38;;;8.37;45.67
67740;BME280;54536;50.090;14.420;2023-03-04T13:47:38;99495.69;;;8.32;45.33
67740;BME280;54536;50.090;14.420;2023-03-04T13:50:40;99491.88;;;8.36;45.22
67740;BME280;54536;50.090;14.420;2023-03-04T13:53:30;99496.78;;;8.52;45.07
67740;BME280;54536;50.090;14.420;2023-03-04T14:04:17;99489.53;;;8.44;45.99
67740;BME280;54536;50.090;14.420;2023-03-04T14:06:51;99497.75;;;8.51;45.79
67740;BME280;54536;50.090;14.420;2023-03-04T14:09:25;99493.81;;;8.45;46.19
67740;BME280;54536;50.090;14.420;2023-03-04T14:11:56;99484.06;;;8.47;45.71
67740;BME280;54536;50.090;14.420;2023-03-04T14:14:30;99482.38;;;8.46;45.96
67740;BME280;54536;50.090;14.420;2023-03-04T14:17:03;99489.28;;;8.58;45.87
67740;BME280;54536;50.090;14.420;2023-03-04T14:19:38;99485.25;;;8.54;45.67
67740;BME280;54536;50.090;14.420;2023-03-04T14:22:39;99478.19;;;8.55;45.93
67740;BME280;54536;50.090;14.420;2023-03-04T14:27:45;99481.66;;;8.55;45.85
67740;BME280;54536;50.090;14.420;2023-03-04T14:30:32;99478.31;;;8.64;45.08
67740;BME280;54536;50.090;14.420;2023-03-04T14:32:59;99474.28;;;8.60;45.17
67740;BME280;54536;50.090;14.420;2023-03-04T14:35:28;99480.22;;;8.51;45.75
67740;BME280;54536;50.090;14.420;2023-03-04T14:38:12;99476.19;;;8.47;45.22
67740;BME280;54536;50.090;14.420;2023-03-04T14:40:44;99471.91;;;8.57;45.38
67740;BME280;54536;50.090;14.420;2023-03-04T14:43:18;99476.31;;;8.57;45.51